• Join FlightAware (Why Join?)
  • Login
  • US Flag 
10:39AM EDT


 

Airport Tracker/Info


-or-


 

Live Flight TrackerFlight Track Log ✈ PDT4314 ✈ 26-Aug-2013 ✈ KPHL - KBGM

Flight Track Log - Related Links

Times and Time Zones

All times are in EDT time to prevent confusion due to time zone crossing. See the PDT4314 flight status page for this flight to view local times or setup timezone preferences in your user account.

Time Position Orientation Groundspeed Altitude Reporting Facility
EDT Latitude Longitude Course Direction KTS MPH feet Rate Location/Type
04:59PM 39.9000 -75.2333 294° West 131 151 600  Level Philadelphia TRACON
05:00PM 39.9167 -75.2833 294° West 128 147 2,300 1,500 Climbing Philadelphia TRACON
05:01PM 39.9333 -75.3167 303° West 126 145 3,700 1,260 Climbing Philadelphia TRACON
05:02PM 39.9500 -75.3667 294° West 149 171 4,900 1,140 Climbing Philadelphia TRACON
05:03PM 39.9333 -75.4333 252° West 174 200 6,100 1,080 Climbing Philadelphia TRACON
05:04PM 39.9333 -75.5000 270° West 165 190 7,200 1,020 Climbing Philadelphia TRACON
05:05PM 39.9667 -75.5000 360° North 159 183 8,200 840 Climbing Philadelphia TRACON
05:06PM 39.9933 -75.5097 344° North 169 194 8,600 480 Climbing New York Center
05:07PM 40.0406 -75.5239 347° North 182 209 9,000 180 Climbing New York Center
05:08PM 40.0983 -75.5386 349° North 210 242 9,000  Level New York Center
05:09PM 40.1561 -75.5561 347° North 224 258 9,000  Level New York Center
05:10PM 40.2119 -75.5656 353° North 219 252 9,000 600 Level New York Center
05:11PM 40.2558 -75.6147 319° Northwest 193 222 10,200 1,020 Climbing New York Center
05:12PM 40.2853 -75.6603 310° West 176 203 11,100 780 Climbing New York Center
05:13PM 40.3147 -75.7061 310° West 166 191 11,800 420 Climbing New York Center
05:14PM 40.3375 -75.7539 302° West 166 191 12,000 480 Climbing New York Center
05:15PM 40.3733 -75.7947 319° Northwest 166 191 12,800 720 Climbing New York Center
05:16PM 40.4203 -75.8172 340° North 160 184 13,500 600 Climbing New York Center
05:17PM 40.4606 -75.8528 326° Northwest 160 184 14,000 240 Climbing New York Center
05:18PM 40.5053 -75.8808 335° Northwest 170 196 14,000  Level New York Center
05:19PM 40.5500 -75.9058 337° Northwest 181 208 14,000  Level New York Center
05:20PM 40.5983 -75.9425 330° Northwest 196 226 14,000  Level New York Center
05:21PM 40.6492 -75.9736 335° Northwest 196 226 14,000  Level New York Center
05:22PM 40.6997 -76.0047 335° Northwest 196 226 14,000  Level New York Center
05:23PM 40.7500 -76.0469 328° Northwest 196 226 14,000  Level New York Center
05:24PM 40.8008 -76.0783 335° Northwest 196 226 14,000  Level New York Center
05:25PM 40.8514 -76.1125 333° Northwest 203 234 14,000  Level New York Center
05:26PM 40.8914 -76.1483 326° Northwest 196 226 14,000  Level New York Center
05:27PM 40.9439 -76.1828 334° Northwest 196 226 14,000  Level New York Center
05:28PM 40.9964 -76.2200 332° Northwest 201 231 14,000  Level New York Center
05:29PM 41.0483 -76.2214 359° North 196 226 14,000  Level New York Center
05:30PM 41.1094 -76.2097 North 206 237 14,000  Level New York Center
05:31PM 41.1758 -76.2125 358° North 218 251 14,000  Level New York Center
05:32PM 41.2364 -76.2089 North 218 251 14,000  Level New York Center
05:33PM 41.2969 -76.2056 North 218 251 14,000  Level New York Center
05:34PM 41.3494 -76.1961 North 218 251 14,000  Level New York Center
05:35PM 41.4122 -76.1900 North 218 251 14,000 -540 Level New York Center
05:36PM 41.4811 -76.1872 North 223 257 13,000 -600 Descending New York Center
05:37PM 41.5461 -76.1786 North 230 265 12,800 -900 Descending New York Center
05:38PM 41.6172 -76.1706 North 241 277 11,300 -1,500 Descending New York Center
05:39PM 41.6817 -76.1731 358° North 254 292 9,800 -1,200 Descending New York Center
05:40PM 41.7525 -76.1731 360° North 254 292 9,000 -720 Descending New York Center
05:41PM 41.8236 -76.1678 North 243 280 8,400 -1,140 Descending New York Center
05:42PM 41.8792 -76.1361 23° Northeast 218 251 6,800 -1,620 Descending New York Center
05:43PM 41.9156 -76.0667 55° Northeast 213 245 5,200 -1,380 Descending New York Center
05:44PM 41.9494 -76.0053 53° Northeast 223 257 4,100 -600 Descending New York Center
05:45PM 41.9947 -75.9278 52° Northeast 228 262 4,000 -60 Descending New York Center
05:46PM 42.0306 -75.8664 52° Northeast 222 255 4,000  Level New York Center
05:47PM 42.0581 -75.8069 58° Northeast 203 234 4,000  Level New York Center
05:48PM 42.0222 -75.7653 139° Southeast 141 162 4,000  Level New York Center
05:49PM 41.9864 -75.7264 141° Southeast 156 180 4,000  Level New York Center
05:50PM 41.9542 -75.7544 213° Southwest 121 139 4,000  Level New York Center
05:51PM 41.9333 -75.8003 239° Southwest 134 154 4,000  Level New York Center
05:52PM 41.9228 -75.8525 255° West 149 171 4,000  Level New York Center
05:54PM 42.0201 -75.8957 342° North  Level Estimated
06:01PM 42.2086 -75.9797 342° North  Level Estimated
06:02PM 42.2086 -75.9797 200° South  Level Estimated
06:03PM 42.2086 -75.9797 200° South  Level Estimated
06:04PM 42.2086 -75.9797 200° South  Level Estimated
06:05PM 42.2086 -75.9797 200° South  Level Estimated
06:06PM 42.2086 -75.9797 200° South  Level Estimated
06:07PM 42.2086 -75.9797 200° South  Level Estimated
06:08PM 42.2086 -75.9797 200° South  Level Estimated
06:09PM 42.2086 -75.9797 200° South  Level Estimated